Time,TemperatureF,DewpointF,PressureIn,WindDirection,WindDirectionDegrees,WindSpeedMPH,WindSpeedGustMPH,Humidity,HourlyPrecipIn,Conditions,Clouds,dailyrainin,SoftwareType,DateUTC
2013-07-08 16:17:00,62.8,58.2,30.66,WNW,302,0.0,0.0,85,0.00,SCT,FEW,0.00,WeatherDisplay:10.37,2013-07-08 15:17:00,
2013-07-08 16:22:00,73.0,61.9,30.68,ENE,78,4.7,4.7,68,0.00,SCT,FEW,0.00,WeatherDisplay:10.37,2013-07-08 15:22:00,
2013-07-08 16:27:00,73.0,61.4,30.68,WNW,302,5.8,5.8,67,0.00,SCT,FEW,0.00,WeatherDisplay:10.37,2013-07-08 15:27:00,
2013-07-08 16:32:00,73.2,61.6,30.68,ENE,78,5.8,5.8,67,0.00,SCT,FEW,0.00,WeatherDisplay:10.37,2013-07-08 15:32:00,
2013-07-08 16:37:00,73.2,61.6,30.68,NW,325,3.5,4.2,67,0.00,SCT,FEW,0.00,WeatherDisplay:10.37,2013-07-08 15:37:00,
2013-07-08 16:42:00,73.0,61.0,30.67,East,100,8.1,8.1,66,0.00,SCT,FEW,0.00,WeatherDisplay:10.37,2013-07-08 15:42:00,
2013-07-08 16:47:00,73.0,61.0,30.67,ENE,78,8.1,8.1,66,0.00,SCT,FEW,0.00,WeatherDisplay:10.37,2013-07-08 15:47:00,
2013-07-08 16:52:00,72.9,61.3,30.67,ENE,78,5.8,5.8,67,0.00,SCT,FEW,0.00,WeatherDisplay:10.37,2013-07-08 15:52:00,
2013-07-08 16:57:00,73.2,61.2,30.67,ENE,78,3.5,3.7,66,0.00,SCT,FEW,0.00,WeatherDisplay:10.37,2013-07-08 15:57:00,
2013-07-08 17:02:00,73.0,61.0,30.67,ENE,78,4.6,4.6,66,0.00,SCT,FEW,0.00,WeatherDisplay:10.37,2013-07-08 16:02:00,
2013-07-08 17:07:00,73.2,61.2,30.67,ENE,78,3.5,3.6,66,0.00,SCT,FEW,0.00,WeatherDisplay:10.37,2013-07-08 16:07:00,
2013-07-08 17:13:00,73.0,61.0,30.67,East,100,4.6,4.6,66,0.00,SCT,FEW,0.00,WeatherDisplay:10.37,2013-07-08 16:13:00,
2013-07-08 17:18:00,73.2,61.2,30.67,ENE,78,5.2,5.2,66,0.00,SCT,FEW,0.00,WeatherDisplay:10.37,2013-07-08 16:18:00,
2013-07-08 17:23:00,73.2,61.6,30.66,ENE,78,3.6,3.6,67,0.00,SCT,FEW,0.00,WeatherDisplay:10.37,2013-07-08 16:23:00,
2013-07-08 17:28:00,73.0,61.4,30.66,ESE,122,4.6,4.6,67,0.00,SCT,FEW,0.00,WeatherDisplay:10.37,2013-07-08 16:28:00,
2013-07-08 17:33:00,73.0,61.4,30.66,ENE,78,6.9,6.9,67,0.00,SCT,FEW,0.00,WeatherDisplay:10.37,2013-07-08 16:33:00,
2013-07-08 17:38:00,72.7,61.1,30.66,ENE,78,3.5,3.5,67,0.00,SCT,FEW,0.00,WeatherDisplay:10.37,2013-07-08 16:38:00,
2013-07-08 17:43:00,72.9,61.7,30.66,East,100,4.6,4.6,68,0.00,SCT,FEW,0.00,WeatherDisplay:10.37,2013-07-08 16:43:00,
2013-07-08 17:48:00,72.5,61.3,30.66,WNW,302,4.6,4.6,68,0.00,SCT,FEW,0.00,WeatherDisplay:10.37,2013-07-08 16:48:00,
2013-07-08 17:54:00,72.5,61.7,30.66,NW,325,3.5,3.5,69,0.00,SCT,FEW,0.00,WeatherDisplay:10.37,2013-07-08 16:54:00,
2013-07-08 18:00:00,72.3,61.6,30.65,ENE,78,4.5,4.5,69,0.00,SCT,FEW,0.00,WeatherDisplay:10.37,2013-07-08 17:00:00,
2013-07-08 18:05:00,72.3,61.6,30.65,East,100,4.6,4.6,69,0.00,FEW,,0.00,WeatherDisplay:10.37,2013-07-08 17:05:00,
2013-07-08 18:10:00,72.5,61.7,30.65,ENE,78,4.6,4.6,69,0.00,FEW,,0.00,WeatherDisplay:10.37,2013-07-08 17:10:00,
2013-07-08 18:15:00,72.5,61.7,30.65,ENE,78,5.8,5.8,69,0.00,FEW,,0.00,WeatherDisplay:10.37,2013-07-08 17:15:00,
2013-07-08 18:21:00,72.5,61.7,30.65,East,100,4.6,4.6,69,0.00,FEW,,0.00,WeatherDisplay:10.37,2013-07-08 17:21:00,
2013-07-08 18:26:00,72.3,61.6,30.65,ENE,78,4.0,4.0,69,0.00,FEW,,0.00,WeatherDisplay:10.37,2013-07-08 17:26:00,
2013-07-08 18:31:00,72.1,61.4,30.65,ENE,78,2.3,2.9,69,0.00,FEW,,0.00,WeatherDisplay:10.37,2013-07-08 17:31:00,
2013-07-08 18:36:00,72.0,61.6,30.65,ENE,78,3.5,3.5,70,0.00,FEW,,0.00,WeatherDisplay:10.37,2013-07-08 17:36:00,
2013-07-08 18:42:00,71.8,61.5,30.64,East,100,3.5,3.5,70,0.00,FEW,,0.00,WeatherDisplay:10.37,2013-07-08 17:42:00,
2013-07-08 18:47:00,71.6,61.3,30.64,ENE,78,4.6,4.6,70,0.00,FEW,,0.00,WeatherDisplay:10.37,2013-07-08 17:47:00,
2013-07-08 18:52:00,71.4,61.1,30.64,East,100,3.5,3.5,70,0.00,FEW,,0.00,WeatherDisplay:10.37,2013-07-08 17:52:00,
2013-07-08 18:57:00,71.4,61.1,30.64,East,100,3.5,3.5,70,0.00,FEW,,0.00,WeatherDisplay:10.37,2013-07-08 17:57:00,
2013-07-08 19:03:00,71.6,61.3,30.66,ENE,78,5.8,5.8,70,0.00,FEW,,0.00,WeatherDisplay:10.37,2013-07-08 18:03:00,
2013-07-08 19:08:00,71.4,61.1,30.66,NW,325,4.6,4.6,70,0.00,FEW,,0.00,WeatherDisplay:10.37,2013-07-08 18:08:00,
2013-07-08 19:14:00,70.9,61.0,30.66,ENE,78,4.8,4.8,71,0.00,FEW,,0.00,WeatherDisplay:10.37,2013-07-08 18:14:00,
2013-07-08 19:19:00,70.9,61.0,30.66,East,100,4.6,4.6,71,0.00,FEW,,0.00,WeatherDisplay:10.37,2013-07-08 18:19:00,
2013-07-08 19:25:00,70.7,60.8,30.65,East,100,4.5,4.5,71,0.00,FEW,,0.00,WeatherDisplay:10.37,2013-07-08 18:25:00,
2013-07-08 19:31:00,70.5,61.1,30.65,ENE,78,3.5,3.5,72,0.00,FEW,,0.00,WeatherDisplay:10.37,2013-07-08 18:31:00,
2013-07-08 19:37:00,70.3,60.9,30.65,East,100,2.4,2.4,72,0.00,FEW,,0.00,WeatherDisplay:10.37,2013-07-08 18:37:00,
2013-07-08 19:42:00,70.0,60.5,30.66,ENE,78,3.6,3.6,72,0.00,FEW,,0.00,WeatherDisplay:10.37,2013-07-08 18:42:00,
2013-07-08 19:48:00,70.0,60.5,30.66,ENE,78,3.5,3.5,72,0.00,FEW,,0.00,WeatherDisplay:10.37,2013-07-08 18:48:00,
2013-07-08 19:54:00,70.0,60.1,30.66,ESE,122,4.6,4.6,71,0.00,FEW,,0.00,WeatherDisplay:10.37,2013-07-08 18:54:00,
2013-07-08 19:59:00,69.6,59.8,30.66,East,100,3.5,3.5,71,0.00,FEW,,0.00,WeatherDisplay:10.37,2013-07-08 18:59:00,
2013-07-08 20:05:00,69.4,59.6,30.65,ENE,78,2.3,2.3,71,0.00,CLR,FEW,0.00,WeatherDisplay:10.37,2013-07-08 19:05:00,
2013-07-08 20:10:00,69.3,59.5,30.65,East,100,3.5,3.5,71,0.00,CLR,FEW,0.00,WeatherDisplay:10.37,2013-07-08 19:10:00,
2013-07-08 20:15:00,68.9,59.5,30.65,ENE,78,2.5,2.5,72,0.00,CLR,FEW,0.00,WeatherDisplay:10.37,2013-07-08 19:15:00,
2013-07-08 20:20:00,68.9,59.9,30.64,NW,325,1.2,1.6,73,0.00,CLR,FEW,0.00,WeatherDisplay:10.37,2013-07-08 19:20:00,
2013-07-08 20:25:00,68.9,59.9,30.64,West,280,2.3,2.3,73,0.00,CLR,FEW,0.00,WeatherDisplay:10.37,2013-07-08 19:25:00,
2013-07-08 20:31:00,68.5,59.5,30.64,WSW,258,3.5,3.5,73,0.00,CLR,FEW,0.00,WeatherDisplay:10.37,2013-07-08 19:31:00,
2013-07-08 20:36:00,68.2,59.2,30.64,NW,325,3.5,3.5,73,0.00,CLR,FEW,0.00,WeatherDisplay:10.37,2013-07-08 19:36:00,
2013-07-08 20:42:00,68.0,59.0,30.64,ESE,122,2.3,2.3,73,0.00,CLR,FEW,0.00,WeatherDisplay:10.37,2013-07-08 19:42:00,
2013-07-08 20:47:00,68.0,59.4,30.64,East,100,2.8,2.8,74,0.00,CLR,FEW,0.00,WeatherDisplay:10.37,2013-07-08 19:47:00,
2013-07-08 20:53:00,67.8,59.2,30.64,NW,325,2.3,2.3,74,0.00,CLR,FEW,0.00,WeatherDisplay:10.37,2013-07-08 19:53:00,
2013-07-08 20:59:00,67.3,59.1,30.63,NW,325,2.2,2.2,75,0.00,CLR,FEW,0.00,WeatherDisplay:10.37,2013-07-08 19:59:00,
2013-07-08 21:04:00,67.3,59.1,30.63,NW,325,1.7,1.7,75,0.00,CLR,FEW,0.00,WeatherDisplay:10.37,2013-07-08 20:04:00,
2013-07-08 21:10:00,67.1,58.9,30.63,East,100,2.4,2.4,75,0.00,CLR,FEW,0.00,WeatherDisplay:10.37,2013-07-08 20:10:00,
2013-07-08 21:15:00,67.1,59.3,30.63,WNW,302,3.5,3.5,76,0.00,CLR,FEW,0.00,WeatherDisplay:10.37,2013-07-08 20:15:00,
2013-07-08 21:20:00,66.9,59.1,30.62,ENE,78,2.3,2.3,76,0.00,CLR,FEW,0.00,WeatherDisplay:10.37,2013-07-08 20:20:00,
2013-07-08 21:25:00,66.7,58.9,30.62,ENE,78,3.5,3.5,76,0.00,CLR,FEW,0.00,WeatherDisplay:10.37,2013-07-08 20:25:00,
2013-07-08 21:30:00,66.7,58.9,30.62,ENE,78,1.2,1.2,76,0.00,CLR,FEW,0.00,WeatherDisplay:10.37,2013-07-08 20:30:00,
2013-07-08 21:35:00,66.2,58.8,30.62,ENE,78,1.2,1.2,77,0.00,CLR,FEW,0.00,WeatherDisplay:10.37,2013-07-08 20:35:00,
2013-07-08 21:41:00,66.0,58.6,30.61,ENE,78,2.3,2.3,77,0.00,CLR,FEW,0.00,WeatherDisplay:10.37,2013-07-08 20:41:00,
2013-07-08 21:46:00,65.8,58.4,30.61,East,100,0.0,0.6,77,0.00,CLR,FEW,0.00,WeatherDisplay:10.37,2013-07-08 20:46:00,
2013-07-08 21:52:00,65.8,58.8,30.61,ENE,78,1.3,1.3,78,0.00,CLR,FEW,0.00,WeatherDisplay:10.37,2013-07-08 20:52:00,
2013-07-08 21:57:00,65.7,58.6,30.61,East,100,2.3,2.3,78,0.00,CLR,FEW,0.00,WeatherDisplay:10.37,2013-07-08 20:57:00,
2013-07-08 22:03:00,65.7,58.6,30.60,ENE,78,1.2,1.2,78,0.00,CLR,FEW,0.00,WeatherDisplay:10.37,2013-07-08 21:03:00,
2013-07-08 22:09:00,65.3,58.6,30.60,East,100,0.0,0.4,79,0.00,CLR,FEW,0.00,WeatherDisplay:10.37,2013-07-08 21:09:00,
2013-07-08 22:15:00,65.3,58.6,30.60,NW,325,2.3,2.3,79,0.00,CLR,FEW,0.00,WeatherDisplay:10.37,2013-07-08 21:15:00,
2013-07-08 22:21:00,65.1,58.4,30.60,East,100,1.6,1.6,79,0.00,CLR,FEW,0.00,WeatherDisplay:10.37,2013-07-08 21:21:00,
2013-07-08 22:27:00,64.9,58.3,30.60,East,100,1.4,1.4,79,0.00,CLR,FEW,0.00,WeatherDisplay:10.37,2013-07-08 21:27:00,
2013-07-08 22:32:00,64.8,58.1,30.60,ENE,78,0.0,0.5,79,0.00,CLR,FEW,0.00,WeatherDisplay:10.37,2013-07-08 21:32:00,
2013-07-08 22:37:00,64.6,57.9,30.60,East,100,1.2,1.2,79,0.00,CLR,FEW,0.00,WeatherDisplay:10.37,2013-07-08 21:37:00,
2013-07-08 22:42:00,64.4,58.1,30.59,ENE,78,0.0,0.2,80,0.00,CLR,FEW,0.00,WeatherDisplay:10.37,2013-07-08 21:42:00,
2013-07-08 22:47:00,64.4,58.1,30.59,East,100,0.0,0.1,80,0.00,CLR,FEW,0.00,WeatherDisplay:10.37,2013-07-08 21:47:00,
2013-07-08 22:52:00,64.2,57.9,30.59,ESE,122,1.2,1.2,80,0.00,CLR,FEW,0.00,WeatherDisplay:10.37,2013-07-08 21:52:00,
2013-07-08 22:58:00,64.0,58.1,30.59,ESE,122,2.3,2.3,81,0.00,CLR,FEW,0.00,WeatherDisplay:10.37,2013-07-08 21:58:00,
2013-07-08 23:03:00,64.2,58.3,30.59,ENE,78,2.3,2.3,81,0.00,CLR,FEW,0.00,WeatherDisplay:10.37,2013-07-08 22:03:00,
2013-07-08 23:09:00,64.2,58.3,30.59,ENE,78,1.2,1.2,81,0.00,CLR,FEW,0.00,WeatherDisplay:10.37,2013-07-08 22:09:00,
2013-07-08 23:14:00,63.9,57.9,30.59,ENE,78,1.3,1.3,81,0.00,CLR,FEW,0.00,WeatherDisplay:10.37,2013-07-08 22:14:00,
2013-07-08 23:19:00,63.7,57.7,30.59,East,100,1.3,1.3,81,0.00,CLR,FEW,0.00,WeatherDisplay:10.37,2013-07-08 22:19:00,
2013-07-08 23:24:00,63.7,57.7,30.59,ENE,78,2.3,2.3,81,0.00,CLR,FEW,0.00,WeatherDisplay:10.37,2013-07-08 22:24:00,
2013-07-08 23:30:00,63.7,58.1,30.59,NNW,348,0.0,0.2,82,0.00,CLR,FEW,0.00,WeatherDisplay:10.37,2013-07-08 22:30:00,
2013-07-08 23:35:00,63.5,57.9,30.59,East,100,1.2,1.2,82,0.00,CLR,FEW,0.00,WeatherDisplay:10.37,2013-07-08 22:35:00,
2013-07-08 23:40:00,63.5,57.9,30.58,East,100,0.0,0.1,82,0.00,CLR,FEW,0.00,WeatherDisplay:10.37,2013-07-08 22:40:00,
2013-07-08 23:46:00,63.0,57.4,30.58,ENE,78,1.3,1.3,82,0.00,CLR,FEW,0.00,WeatherDisplay:10.37,2013-07-08 22:46:00,
2013-07-08 23:51:00,63.1,57.9,30.58,East,100,2.3,2.3,83,0.00,CLR,FEW,0.00,WeatherDisplay:10.37,2013-07-08 22:51:00,
2013-07-08 23:56:00,62.8,57.5,30.58,ENE,78,1.2,1.2,83,0.00,CLR,FEW,0.00,WeatherDisplay:10.37,2013-07-08 22:56:00,